createdAt,value
2023-05-14T00:01:55.428Z,100004.25
2023-05-14T00:04:24.157Z,100005.31
2023-05-14T00:06:52.528Z,100000.41
2023-05-14T00:09:22.222Z,100002.94
2023-05-14T00:11:50.829Z,99992.25
2023-05-14T00:14:19.252Z,99998.50
2023-05-14T00:16:47.589Z,99986.59
2023-05-14T00:19:16.322Z,99994.94
2023-05-14T00:21:46.915Z,99985.16
2023-05-14T00:24:15.899Z,99985.87
2023-05-14T00:26:45.799Z,99988.66
2023-05-14T00:29:14.108Z,99984.25
2023-05-14T00:31:42.643Z,99975.50
2023-05-14T00:34:10.934Z,99985.44
2023-05-14T00:36:39.281Z,99973.06
2023-05-14T00:39:07.818Z,99968.47
2023-05-14T00:41:36.350Z,99975.75
2023-05-14T00:44:06.297Z,99970.47
2023-05-14T00:46:35.100Z,99968.72
2023-05-14T00:49:03.393Z,99962.75
2023-05-14T00:51:31.687Z,99954.16
2023-05-14T00:54:00.300Z,99956.69
2023-05-14T00:56:29.381Z,99950.00
2023-05-14T00:58:57.679Z,99948.75
2023-05-14T01:01:28.701Z,99954.19
2023-05-14T01:03:57.980Z,99945.88
2023-05-14T01:06:27.580Z,99941.03
2023-05-14T01:08:58.230Z,99938.81
2023-05-14T01:11:27.500Z,99935.09
2023-05-14T01:13:57.806Z,99940.19
2023-05-14T01:16:28.193Z,99934.13
2023-05-14T01:18:56.941Z,99929.84
2023-05-14T01:21:30.601Z,99939.91
2023-05-14T01:23:59.219Z,99929.84
2023-05-14T01:26:28.074Z,99925.28
2023-05-14T01:28:56.424Z,99925.25
2023-05-14T01:31:27.897Z,99926.91
2023-05-14T01:33:56.255Z,99922.28
2023-05-14T01:36:24.912Z,99922.28
2023-05-14T01:38:54.621Z,99914.78
2023-05-14T01:41:22.911Z,99910.03
2023-05-14T01:43:52.805Z,99899.44
2023-05-14T01:46:21.190Z,99894.50
2023-05-14T01:48:49.481Z,99900.16
2023-05-14T01:51:20.382Z,99883.69
2023-05-14T01:53:48.753Z,99884.06
2023-05-14T01:56:18.405Z,99874.47
2023-05-14T01:58:47.186Z,99877.22
2023-05-14T02:01:15.630Z,99875.59
2023-05-14T02:03:44.279Z,99877.53
2023-05-14T02:06:12.681Z,99878.06
2023-05-14T02:08:40.994Z,99873.97
2023-05-14T02:11:09.689Z,99875.22
2023-05-14T02:13:39.799Z,99875.75
2023-05-14T02:16:08.643Z,99871.25
2023-05-14T02:18:37.090Z,99882.13
2023-05-14T02:21:05.904Z,99874.22
2023-05-14T02:23:41.474Z,99874.69
2023-05-14T02:26:11.001Z,99872.03
2023-05-14T02:28:40.788Z,99877.34
2023-05-14T02:31:09.168Z,99861.41
2023-05-14T02:33:37.884Z,99869.44
2023-05-14T02:36:08.934Z,99863.75
2023-05-14T02:38:37.571Z,99862.03
2023-05-14T02:41:05.923Z,99862.88
2023-05-14T02:43:34.179Z,99866.06
2023-05-14T02:46:04.164Z,99871.09
2023-05-14T02:48:32.438Z,99873.19
2023-05-14T02:51:01.143Z,99871.31
2023-05-14T02:53:29.786Z,99858.81
2023-05-14T02:55:58.162Z,99854.38
2023-05-14T02:58:28.483Z,99860.97
2023-05-14T03:00:57.464Z,99853.41
2023-05-14T03:03:27.707Z,99858.75
2023-05-14T03:05:56.886Z,99853.16
2023-05-14T03:08:25.293Z,99854.00
2023-05-14T03:10:53.637Z,99850.44
2023-05-14T03:13:22.348Z,99857.31
2023-05-14T03:15:54.838Z,99853.03
2023-05-14T03:18:23.833Z,99861.06
2023-05-14T03:20:56.117Z,99855.56
2023-05-14T03:23:24.791Z,99851.56
2023-05-14T03:25:53.587Z,99850.50
2023-05-14T03:28:21.899Z,99843.97
2023-05-14T03:30:50.768Z,99849.47
2023-05-14T03:33:19.184Z,99847.06
2023-05-14T03:35:47.674Z,99838.91
2023-05-14T03:38:17.650Z,99842.84
2023-05-14T03:40:48.122Z,99854.59
2023-05-14T03:43:17.339Z,99849.50
2023-05-14T03:45:45.776Z,99840.50
2023-05-14T03:48:14.309Z,99849.31
2023-05-14T03:50:43.371Z,99839.75
2023-05-14T03:53:11.674Z,99833.25
2023-05-14T03:55:41.347Z,99838.91
2023-05-14T03:58:14.218Z,99838.34
2023-05-14T04:00:42.829Z,99837.72
2023-05-14T04:03:12.160Z,99835.72
2023-05-14T04:05:40.633Z,99836.75
2023-05-14T04:08:09.165Z,99830.38
2023-05-14T04:10:37.778Z,99824.94
2023-05-14T04:13:07.654Z,99825.56
2023-05-14T04:15:39.274Z,99837.47
2023-05-14T04:18:08.026Z,99835.97
2023-05-14T04:20:36.911Z,99835.56
2023-05-14T04:23:05.316Z,99829.16
2023-05-14T04:25:33.930Z,99829.34
2023-05-14T04:28:02.320Z,99827.94
2023-05-14T04:30:32.040Z,99821.06
2023-05-14T04:33:00.666Z,99815.38
2023-05-14T04:35:29.188Z,99818.16
2023-05-14T04:37:57.607Z,99828.00
2023-05-14T04:40:26.542Z,99834.72
2023-05-14T04:42:55.030Z,99828.72
2023-05-14T04:45:23.276Z,99828.34
2023-05-14T04:47:55.949Z,99838.38
2023-05-14T04:50:24.421Z,99829.75
2023-05-14T04:52:53.272Z,99834.53
2023-05-14T04:55:21.657Z,99829.84
2023-05-14T04:57:50.277Z,99823.16
2023-05-14T05:00:19.169Z,99823.81
2023-05-14T05:02:47.527Z,99822.47
2023-05-14T05:05:17.243Z,99821.53
2023-05-14T05:07:45.846Z,99819.44
2023-05-14T05:10:14.207Z,99825.06
2023-05-14T05:12:42.615Z,99824.47
2023-05-14T05:15:11.355Z,99813.62
2023-05-14T05:17:39.739Z,99820.59
2023-05-14T05:20:10.020Z,99818.81
2023-05-14T05:22:40.065Z,99816.53
2023-05-14T05:25:09.207Z,99809.75
2023-05-14T05:27:37.567Z,99811.09
2023-05-14T05:30:08.408Z,99812.91
2023-05-14T05:32:36.842Z,99815.91
2023-05-14T05:35:05.594Z,99811.41
2023-05-14T05:37:34.362Z,99808.41
2023-05-14T05:40:05.968Z,99813.31
2023-05-14T05:42:34.553Z,99815.16
2023-05-14T05:45:02.941Z,99813.88
2023-05-14T05:47:32.874Z,99813.94
2023-05-14T05:50:01.933Z,99814.53
2023-05-14T05:52:30.328Z,99814.66
2023-05-14T05:54:58.688Z,99815.44
2023-05-14T05:57:28.666Z,99822.12
2023-05-14T05:59:56.973Z,99823.66
2023-05-14T06:02:25.594Z,99823.19
2023-05-14T06:04:54.244Z,99824.47
2023-05-14T06:07:22.586Z,99820.88
2023-05-14T06:09:50.861Z,99830.00
2023-05-14T06:12:19.491Z,99833.41
2023-05-14T06:14:51.479Z,99834.00
2023-05-14T06:17:20.088Z,99831.16
2023-05-14T06:19:48.353Z,99837.44
2023-05-14T06:22:16.693Z,99838.88
2023-05-14T06:24:45.266Z,99840.66
2023-05-14T06:27:13.557Z,99839.94
2023-05-14T06:29:41.836Z,99839.31
2023-05-14T06:32:15.442Z,99831.28
2023-05-14T06:34:43.881Z,99829.34
2023-05-14T06:37:12.784Z,99848.53
2023-05-14T06:39:44.170Z,99830.34
2023-05-14T06:42:12.757Z,99831.25
2023-05-14T06:44:41.183Z,99823.03
2023-05-14T06:47:10.973Z,99826.13
2023-05-14T06:49:39.630Z,99822.19
2023-05-14T06:52:08.148Z,99820.63
2023-05-14T06:54:36.510Z,99814.31
2023-05-14T06:57:05.245Z,99816.69
2023-05-14T06:59:33.621Z,99809.75
2023-05-14T07:02:02.343Z,99811.22
2023-05-14T07:04:32.373Z,99812.47
2023-05-14T07:07:00.731Z,99805.28
2023-05-14T07:09:29.091Z,99794.19
2023-05-14T07:11:57.886Z,99791.22
2023-05-14T07:14:26.272Z,99794.72
2023-05-14T07:16:54.693Z,99794.87
2023-05-14T07:19:23.384Z,99795.87
2023-05-14T07:21:53.084Z,99790.72
2023-05-14T07:24:21.389Z,99790.06
2023-05-14T07:26:50.259Z,99783.38
2023-05-14T07:29:18.586Z,99785.69
2023-05-14T07:31:46.966Z,99785.00
2023-05-14T07:34:15.617Z,99792.81
2023-05-14T07:36:43.968Z,99783.72
2023-05-14T07:39:16.773Z,99786.41
2023-05-14T07:41:45.441Z,99779.22
2023-05-14T07:44:13.750Z,99782.50
2023-05-14T07:46:42.161Z,99775.78
2023-05-14T07:49:10.887Z,99772.09
2023-05-14T07:51:39.538Z,99769.47
2023-05-14T07:54:07.790Z,99772.00
2023-05-14T07:56:37.828Z,99770.56
2023-05-14T07:59:07.108Z,99760.03
2023-05-14T08:01:37.737Z,99767.22
2023-05-14T08:04:08.038Z,99762.00
2023-05-14T08:06:37.218Z,99749.97
2023-05-14T08:09:06.389Z,99747.53
2023-05-14T08:11:34.903Z,99750.00
2023-05-14T08:14:04.632Z,99745.12
2023-05-14T08:16:33.091Z,99738.00
2023-05-14T08:19:01.773Z,99731.53
2023-05-14T08:21:30.135Z,99731.78
2023-05-14T08:24:00.469Z,99736.13
2023-05-14T08:26:29.085Z,99723.12
2023-05-14T08:28:57.389Z,99726.47
2023-05-14T08:31:27.263Z,99724.59
2023-05-14T08:33:55.845Z,99723.66
2023-05-14T08:36:24.145Z,99724.34
2023-05-14T08:38:52.746Z,99715.59
2023-05-14T08:41:21.351Z,99710.94
2023-05-14T08:43:52.335Z,99708.34
2023-05-14T08:46:21.041Z,99712.78
2023-05-14T08:48:51.612Z,99705.91
2023-05-14T08:51:20.024Z,99708.19
2023-05-14T08:53:49.151Z,99709.16
2023-05-14T08:56:17.752Z,99717.59
2023-05-14T08:58:46.178Z,99713.88
2023-05-14T09:01:15.151Z,99705.66
2023-05-14T09:03:43.511Z,99714.50
2023-05-14T09:06:13.376Z,99717.72
2023-05-14T09:08:42.056Z,99719.56
2023-05-14T09:11:10.370Z,99719.28
2023-05-14T09:13:39.440Z,99710.66
2023-05-14T09:16:08.384Z,99713.88
2023-05-14T09:18:37.162Z,99710.09
2023-05-14T09:21:05.622Z,99706.66
2023-05-14T09:23:35.544Z,99703.53
2023-05-14T09:26:05.589Z,99692.38
2023-05-14T09:28:34.201Z,99686.97
2023-05-14T09:31:02.845Z,99677.50
2023-05-14T09:33:31.110Z,99682.72
2023-05-14T09:36:00.584Z,99675.22
2023-05-14T09:38:31.803Z,99679.22
2023-05-14T09:41:01.861Z,99682.56
2023-05-14T09:43:30.238Z,99670.22
2023-05-14T09:45:58.693Z,99657.31
2023-05-14T09:48:27.315Z,99649.28
2023-05-14T09:50:57.915Z,99651.00
2023-05-14T09:53:26.526Z,99654.88
2023-05-14T09:55:54.895Z,99649.72
2023-05-14T09:58:24.675Z,99648.03
2023-05-14T10:00:53.339Z,99639.00
2023-05-14T10:03:21.968Z,99623.97
2023-05-14T10:05:51.078Z,99619.19
2023-05-14T10:08:21.393Z,99614.88
2023-05-14T10:10:49.993Z,99606.63
2023-05-14T10:13:19.543Z,99605.81
2023-05-14T10:15:49.640Z,99589.41
2023-05-14T10:18:19.269Z,99586.66
2023-05-14T10:20:48.334Z,99574.94
2023-05-14T10:23:16.708Z,99562.62
2023-05-14T10:25:45.245Z,99544.28
2023-05-14T10:28:13.578Z,99547.97
2023-05-14T10:30:44.831Z,99555.19
2023-05-14T10:33:15.530Z,99573.69
2023-05-14T10:36:01.098Z,99583.91
2023-05-14T10:38:30.116Z,99583.91
2023-05-14T10:41:05.263Z,99578.78
2023-05-14T10:43:40.500Z,99570.31
2023-05-14T10:46:09.199Z,99576.50
2023-05-14T10:48:39.864Z,99569.06
2023-05-14T10:51:08.632Z,99576.56
2023-05-14T10:53:37.316Z,99573.56
2023-05-14T10:56:07.065Z,99570.34
2023-05-14T10:58:39.152Z,99574.94
2023-05-14T11:01:08.348Z,99562.12
2023-05-14T11:03:42.188Z,99578.53
2023-05-14T11:06:11.319Z,99567.56
2023-05-14T11:08:39.742Z,99566.09
2023-05-14T11:11:08.091Z,99558.13
2023-05-14T11:13:36.609Z,99556.69
2023-05-14T11:16:15.636Z,99559.94
2023-05-14T11:18:55.879Z,99560.50
2023-05-14T11:21:24.265Z,99556.41
2023-05-14T11:23:53.016Z,99555.22
2023-05-14T11:26:21.728Z,99554.66
2023-05-14T11:28:50.303Z,99552.19
2023-05-14T11:31:19.029Z,99545.56
2023-05-14T11:33:47.354Z,99553.44
2023-05-14T11:36:19.259Z,99553.41
2023-05-14T11:38:49.453Z,99550.66
2023-05-14T11:41:17.837Z,99556.53
2023-05-14T11:43:46.205Z,99552.31
2023-05-14T11:46:19.076Z,99544.81
2023-05-14T11:48:47.807Z,99554.00
2023-05-14T11:51:17.896Z,99543.56
2023-05-14T11:53:46.438Z,99549.72
2023-05-14T11:56:14.838Z,99536.03
2023-05-14T11:58:48.375Z,99533.75
2023-05-14T12:01:16.761Z,99535.56
2023-05-14T12:03:45.472Z,99537.69
2023-05-14T12:06:13.978Z,99521.78
2023-05-14T12:08:43.717Z,99519.03
2023-05-14T12:11:12.427Z,99512.59
2023-05-14T12:13:40.959Z,99511.69
2023-05-14T12:16:09.312Z,99507.03
2023-05-14T12:18:38.063Z,99493.03
2023-05-14T12:21:09.162Z,99498.81
2023-05-14T12:23:38.277Z,99493.22
2023-05-14T12:26:08.354Z,99484.03
2023-05-14T12:28:38.608Z,99496.97
2023-05-14T12:31:07.433Z,99489.91
2023-05-14T12:33:35.801Z,99491.59
2023-05-14T12:36:20.436Z,99484.34
2023-05-14T12:38:49.741Z,99482.03
2023-05-14T12:41:19.546Z,99489.13
2023-05-14T12:43:48.631Z,99487.75
2023-05-14T12:46:17.462Z,99491.69
2023-05-14T12:48:46.452Z,99493.25
2023-05-14T12:51:14.925Z,99484.47
2023-05-14T12:53:43.586Z,99481.88
2023-05-14T12:56:11.980Z,99464.22
2023-05-14T12:58:41.720Z,99466.97
2023-05-14T13:01:10.679Z,99454.34
2023-05-14T13:03:39.034Z,99449.69
2023-05-14T13:06:07.527Z,99448.97
2023-05-14T13:08:36.135Z,99437.16
2023-05-14T13:11:04.462Z,99435.59
2023-05-14T13:13:32.833Z,99435.38
2023-05-14T13:16:03.547Z,99436.25
2023-05-14T13:18:32.115Z,99427.84
2023-05-14T13:21:00.842Z,99417.84
2023-05-14T13:23:29.199Z,99413.19
2023-05-14T13:25:57.481Z,99407.97
2023-05-14T13:28:26.074Z,99395.66
2023-05-14T13:31:08.697Z,99401.97
2023-05-14T13:33:37.595Z,99402.50
2023-05-14T13:36:06.299Z,99399.31
2023-05-14T13:38:34.877Z,99393.25
2023-05-14T13:41:03.505Z,99380.41
2023-05-14T13:43:31.935Z,99386.72
2023-05-14T13:46:00.411Z,99382.81
2023-05-14T13:48:31.095Z,99373.38
2023-05-14T13:50:59.467Z,99380.09
2023-05-14T13:53:27.824Z,99373.81
2023-05-14T13:56:00.166Z,99366.88
2023-05-14T13:58:28.607Z,99366.84
2023-05-14T14:00:57.675Z,99369.78
2023-05-14T14:03:26.275Z,99373.16
2023-05-14T14:05:55.897Z,99370.25
2023-05-14T14:08:24.666Z,99362.47
2023-05-14T14:10:55.270Z,99354.75
2023-05-14T14:13:24.447Z,99348.13
2023-05-14T14:15:53.229Z,99362.25
2023-05-14T14:18:21.692Z,99351.19
2023-05-14T14:20:50.158Z,99358.94
2023-05-14T14:23:20.069Z,99366.00
2023-05-14T14:25:48.396Z,99353.63
2023-05-14T14:28:16.738Z,99354.69
2023-05-14T14:30:45.375Z,99356.19
2023-05-14T14:33:14.105Z,99349.88
2023-05-14T14:35:42.518Z,99344.44
2023-05-14T14:38:11.077Z,99345.06
2023-05-14T14:40:40.836Z,99349.78
2023-05-14T14:43:09.165Z,99340.91
2023-05-14T14:45:37.804Z,99347.06
2023-05-14T14:48:25.129Z,99336.31
2023-05-14T14:50:53.817Z,99332.41
2023-05-14T14:53:22.197Z,99329.94
2023-05-14T14:55:51.951Z,99333.59
2023-05-14T14:58:20.861Z,99331.22
2023-05-14T15:00:49.198Z,99324.16
2023-05-14T15:03:18.788Z,99322.37
2023-05-14T15:05:47.597Z,99304.75
2023-05-14T15:08:15.967Z,99301.41
2023-05-14T15:10:45.138Z,99301.31
2023-05-14T15:13:15.145Z,99308.72
2023-05-14T15:15:43.582Z,99297.88
2023-05-14T15:18:12.233Z,99296.69
2023-05-14T15:20:41.119Z,99294.28
2023-05-14T15:23:11.491Z,99302.09
2023-05-14T15:25:39.936Z,99303.97
2023-05-14T15:28:08.557Z,99304.62
2023-05-14T15:30:38.211Z,99304.56
2023-05-14T15:33:07.412Z,99307.91
2023-05-14T15:35:36.529Z,99311.94
2023-05-14T15:38:04.929Z,99314.78
2023-05-14T15:40:34.995Z,99296.59
2023-05-14T15:43:03.694Z,99296.09
2023-05-14T15:45:32.053Z,99301.06
2023-05-14T15:48:01.833Z,99293.13
2023-05-14T15:50:30.448Z,99287.44
2023-05-14T15:52:58.868Z,99277.97
2023-05-14T15:55:27.226Z,99248.22
2023-05-14T15:57:55.862Z,99252.69
2023-05-14T16:00:25.119Z,99236.28
2023-05-14T16:02:53.919Z,99232.97
2023-05-14T16:05:23.802Z,99231.28
2023-05-14T16:07:52.242Z,99231.03
2023-05-14T16:10:23.634Z,99235.69
2023-05-14T16:12:52.194Z,99238.87
2023-05-14T16:15:21.088Z,99245.75
2023-05-14T16:17:49.550Z,99243.56
2023-05-14T16:20:18.041Z,99247.66
2023-05-14T16:22:48.019Z,99240.66
2023-05-14T16:25:18.697Z,99243.31
2023-05-14T16:27:47.384Z,99237.03
2023-05-14T16:30:15.844Z,99242.97
2023-05-14T16:32:46.676Z,99242.50
2023-05-14T16:35:15.570Z,99231.28
2023-05-14T16:37:44.031Z,99234.84
2023-05-14T16:40:16.091Z,99233.97
2023-05-14T16:42:46.435Z,99224.56
2023-05-14T16:45:16.200Z,99221.31
2023-05-14T16:47:45.338Z,99214.63
2023-05-14T16:50:13.904Z,99214.94
2023-05-14T16:52:42.482Z,99213.12
2023-05-14T16:55:13.955Z,99204.34
2023-05-14T16:57:43.758Z,99208.37
2023-05-14T17:00:12.944Z,99212.78
2023-05-14T17:02:41.409Z,99213.47
2023-05-14T17:05:11.065Z,99210.25
2023-05-14T17:07:40.109Z,99200.84
2023-05-14T17:10:09.045Z,99201.28
2023-05-14T17:12:38.746Z,99188.72
2023-05-14T17:15:08.259Z,99184.97
2023-05-14T17:17:36.949Z,99184.22
2023-05-14T17:20:06.267Z,99181.19
2023-05-14T17:22:34.762Z,99176.03
2023-05-14T17:25:03.155Z,99177.63
2023-05-14T17:27:33.359Z,99164.84
2023-05-14T17:30:03.476Z,99149.31
2023-05-14T17:32:34.245Z,99152.56
2023-05-14T17:35:03.126Z,99145.59
2023-05-14T17:37:34.082Z,99143.06
2023-05-14T17:40:02.939Z,99145.69
2023-05-14T17:42:31.311Z,99156.41
2023-05-14T17:44:59.727Z,99152.66
2023-05-14T17:47:29.713Z,99150.84
2023-05-14T17:49:58.265Z,99148.97
2023-05-14T17:52:26.798Z,99142.16
2023-05-14T17:54:55.366Z,99140.09
2023-05-14T17:57:23.873Z,99133.31
2023-05-14T17:59:52.189Z,99121.94
2023-05-14T18:02:20.763Z,99121.84
2023-05-14T18:04:51.200Z,99125.75
2023-05-14T18:07:21.132Z,99117.81
2023-05-14T18:09:49.845Z,99130.97
2023-05-14T18:12:18.191Z,99127.84
2023-05-14T18:14:46.756Z,99127.47
2023-05-14T18:17:15.538Z,99119.38
2023-05-14T18:19:44.172Z,99123.97
2023-05-14T18:22:14.245Z,99122.34
2023-05-14T18:24:46.519Z,99137.13
2023-05-14T18:27:18.857Z,99149.91
2023-05-14T18:29:47.562Z,99141.00
2023-05-14T18:32:15.903Z,99146.47
2023-05-14T18:34:44.385Z,99142.44
2023-05-14T18:37:14.868Z,99132.87
2023-05-14T18:39:53.187Z,99140.47
2023-05-14T18:42:22.349Z,99138.13
2023-05-14T18:44:51.513Z,99145.53
2023-05-14T18:47:19.941Z,99155.84
2023-05-14T18:49:50.682Z,99151.84
2023-05-14T18:52:20.476Z,99140.44
2023-05-14T18:54:49.520Z,99134.53
2023-05-14T18:57:17.942Z,99131.81
2023-05-14T18:59:46.495Z,99133.16
2023-05-14T19:02:15.098Z,99140.59
2023-05-14T19:04:52.470Z,99146.00
2023-05-14T19:07:23.549Z,99145.06
2023-05-14T19:09:52.491Z,99143.66
2023-05-14T19:12:20.993Z,99130.28
2023-05-14T19:14:52.640Z,99121.34
2023-05-14T19:17:21.559Z,99125.66
2023-05-14T19:19:50.562Z,99127.22
2023-05-14T19:22:19.859Z,99126.13
2023-05-14T19:27:24.237Z,99112.19
2023-05-14T19:29:52.795Z,99117.16
2023-05-14T19:32:22.363Z,99113.25
2023-05-14T19:34:51.835Z,99107.50
2023-05-14T19:37:20.549Z,99107.34
2023-05-14T19:39:50.741Z,99113.91
2023-05-14T19:42:19.496Z,99103.50
2023-05-14T19:44:48.254Z,99090.12
2023-05-14T19:47:16.627Z,99092.69
2023-05-14T19:49:45.571Z,99106.12
2023-05-14T19:52:14.222Z,99093.50
2023-05-14T19:54:42.803Z,99098.22
2023-05-14T19:57:13.115Z,99099.34
2023-05-14T19:59:42.518Z,99096.28
2023-05-14T20:02:15.506Z,99090.28
2023-05-14T20:04:45.997Z,99093.66
2023-05-14T20:07:16.040Z,99091.31
2023-05-14T20:09:45.126Z,99088.66
2023-05-14T20:12:14.842Z,99089.53
2023-05-14T20:14:43.585Z,99079.13
2023-05-14T20:17:12.288Z,99083.53
2023-05-14T20:19:41.285Z,99087.22
2023-05-14T20:22:09.890Z,99082.12
2023-05-14T20:24:38.610Z,99087.16
2023-05-14T20:27:07.296Z,99081.84
2023-05-14T20:29:36.970Z,99079.66
2023-05-14T20:32:05.955Z,99064.63
2023-05-14T20:34:34.294Z,99068.72
2023-05-14T20:37:04.804Z,99069.28
2023-05-14T20:39:33.465Z,99055.91
2023-05-14T20:42:01.855Z,99060.34
2023-05-14T20:44:30.245Z,99060.94
2023-05-14T20:47:00.134Z,99044.03
2023-05-14T20:49:28.674Z,99045.53
2023-05-14T20:51:56.995Z,99046.84
2023-05-14T20:54:25.639Z,99049.69
2023-05-14T20:56:53.976Z,99032.97
2023-05-14T20:59:22.271Z,99026.94
2023-05-14T21:01:51.084Z,99012.09
2023-05-14T21:04:21.052Z,99014.19
2023-05-14T21:06:49.451Z,99006.62
2023-05-14T21:09:18.085Z,99011.22
2023-05-14T21:11:46.599Z,99003.47
2023-05-14T21:14:14.893Z,99009.84
2023-05-14T21:16:43.499Z,99004.59
2023-05-14T21:19:14.733Z,99003.44
2023-05-14T21:21:45.694Z,99005.44
2023-05-14T21:24:14.100Z,98999.88
2023-05-14T21:26:42.502Z,98992.88
2023-05-14T21:29:14.988Z,99001.53
2023-05-14T21:31:43.556Z,98993.94
2023-05-14T21:34:12.239Z,98982.97
2023-05-14T21:36:40.507Z,98977.13
2023-05-14T21:39:10.195Z,98964.37
2023-05-14T21:41:38.916Z,98952.28
2023-05-14T21:44:07.440Z,98938.31
2023-05-14T21:46:35.991Z,98938.88
2023-05-14T21:49:04.665Z,98933.75
2023-05-14T21:51:33.122Z,98941.81
2023-05-14T21:54:01.500Z,98953.34
2023-05-14T21:56:31.427Z,98949.81
2023-05-14T21:58:59.796Z,98954.75
2023-05-14T22:01:28.385Z,98966.25
2023-05-14T22:03:57.974Z,98968.84
2023-05-14T22:06:26.568Z,98967.41
2023-05-14T22:08:54.918Z,98968.62
2023-05-14T22:11:23.495Z,98967.41
2023-05-14T22:13:53.119Z,98979.91
2023-05-14T22:16:22.373Z,98989.53
2023-05-14T22:18:51.276Z,98985.09
2023-05-14T22:21:19.640Z,98980.16
2023-05-14T22:23:49.066Z,98983.06
2023-05-14T22:26:17.741Z,98977.56
2023-05-14T22:28:46.146Z,98972.16
2023-05-14T22:31:15.953Z,98968.72
2023-05-14T22:33:44.591Z,98969.12
2023-05-14T22:36:12.864Z,98974.56
2023-05-14T22:38:43.774Z,98973.28
2023-05-14T22:41:13.409Z,98976.91
2023-05-14T22:43:41.706Z,98967.44
2023-05-14T22:46:10.097Z,98975.00
2023-05-14T22:48:39.987Z,98983.94
2023-05-14T22:51:08.346Z,98984.50
2023-05-14T22:53:36.777Z,98977.78
2023-05-14T22:56:05.756Z,98985.63
2023-05-14T22:58:34.018Z,98980.41
2023-05-14T23:01:02.333Z,98986.75
2023-05-14T23:03:31.093Z,98976.81
2023-05-14T23:06:00.806Z,98968.59
2023-05-14T23:08:29.066Z,98965.59
2023-05-14T23:10:57.691Z,98962.84
2023-05-14T23:13:26.111Z,98957.78
2023-05-14T23:15:54.461Z,98958.06
2023-05-14T23:18:24.046Z,98959.22
2023-05-14T23:20:52.407Z,98943.09
2023-05-14T23:23:22.054Z,98934.69
2023-05-14T23:25:50.686Z,98933.47
2023-05-14T23:28:19.171Z,98920.66
2023-05-14T23:30:47.480Z,98923.81
2023-05-14T23:33:16.145Z,98915.28
2023-05-14T23:35:44.465Z,98916.25
2023-05-14T23:38:12.833Z,98918.37
2023-05-14T23:40:42.832Z,98911.19
2023-05-14T23:43:11.129Z,98910.34
2023-05-14T23:45:39.481Z,98903.59
2023-05-14T23:48:08.111Z,98898.63
2023-05-14T23:50:36.996Z,98894.56
2023-05-14T23:53:05.365Z,98890.19
2023-05-14T23:55:33.963Z,98888.13
2023-05-14T23:58:03.622Z,98881.16
